This is the latest recevied weather packets stored in our database for station/object OK1ZDJ-13. If no packets are shown the sender has not sent any weather packets the latest 10 day(s).
| Time | Temp. | Humidity | Pressure | Rain* | Wind** | Luminosity | Snow |
|---|---|---|---|---|---|---|---|
| 1777734469 | 31.67° C | 14% | 1021.4 hPa | - | - | - | - |
| 1777733869 | 29.44° C | 15% | 1021.6 hPa | - | - | - | - |
| 1777733269 | 27.78° C | 17% | 1021.8 hPa | - | - | - | - |
| 1777732669 | 25° C | 22% | 1022 hPa | - | - | - | - |
| 1777732069 | 23.89° C | 22% | 1022.1 hPa | - | - | - | - |
| 1777731469 | 23.89° C | 21% | 1022.2 hPa | - | - | - | - |
| 1777730271 | 23.33° C | 21% | 1022.4 hPa | - | - | - | - |
| 1777729669 | 23.33° C | 21% | 1022.5 hPa | - | - | - | - |
| 1777729069 | 23.33° C | 21% | 1022.5 hPa | - | - | - | - |
| 1777728469 | 22.78° C | 21% | 1022.7 hPa | - | - | - | - |
| 1777727869 | 23.33° C | 21% | 1022.8 hPa | - | - | - | - |
| 1777727269 | 22.78° C | 21% | 1023 hPa | - | - | - | - |
| 1777726669 | 22.78° C | 22% | 1023.1 hPa | - | - | - | - |
| 1777726069 | 22.78° C | 21% | 1023.4 hPa | - | - | - | - |
| 1777725469 | 22.78° C | 22% | 1023.5 hPa | - | - | - | - |
| 1777724869 | 22.22° C | 22% | 1023.7 hPa | - | - | - | - |
| 1777723669 | 22.22° C | 23% | 1023.9 hPa | - | - | - | - |
| 1777723069 | 22.22° C | 23% | 1024 hPa | - | - | - | - |
| 1777722469 | 21.67° C | 24% | 1024.2 hPa | - | - | - | - |
| 1777721869 | 21.67° C | 23% | 1024.3 hPa | - | - | - | - |
| 1777721269 | 21.67° C | 24% | 1024.5 hPa | - | - | - | - |
| 1777720669 | 21.67° C | 23% | 1024.7 hPa | - | - | - | - |
| 1777720069 | 21.67° C | 22% | 1024.8 hPa | - | - | - | - |
| 1777719469 | 21.11° C | 25% | 1024.9 hPa | - | - | - | - |
| 1777718869 | 21.67° C | 23% | 1025.1 hPa | - | - | - | - |
* Rain since midnight (hover to see other rain measurements)
** Current wind speed in m/s (hover to see current wind gust speed)